Nearby METAR Reports

 

KHYR - Hayward, Wisconsin, USA
Distance from station: WNW 20mi, 33km
Updated: Mon, 04-Mar-2024 10:53am CST
Mostly cloudy
Mostly cloudy
 Wind from SSW
Wind: SSW 7 mph , 11 km/h
Temperature: 37°F , 3°C
Wind Chill: 32°F , 0°C
Dew Point: 23°F , -5°C
Humidity: 56%
Barometer: 29.96 inHg , 1014.6 hPa
Clouds: Mostly cloudy
Visibility: 10 miles , 16 km
Cloud details: Mostly cloudy 9000 ft
2024/03/04 16:53 KHYR 041653Z AUTO 21006KT 10SM BKN090 03/M05 A2996 RMK AO2 SLP156 T00281050
KRCX - Ladysmith/Rusk, Wisconsin, USA
Distance from station: S 27mi, 43km
Updated: Mon, 04-Mar-2024 11:15am CST
Overcast
Overcast
 Wind from WNW
Wind: WNW 6 mph , 9 km/h
Temperature: 37°F , 3°C
Wind Chill: 32°F , 0°C
Dew Point: 27°F , -3°C
Humidity: 65%
Barometer: 29.98 inHg , 1015.2 hPa
Clouds: Overcast
Visibility: 10 miles , 16 km
Cloud details: Partly cloudy 3600 ft
Mostly cloudy 5000 ft
Overcast 9500 ft
2024/03/04 17:15 KRCX 041715Z AUTO 30005KT 10SM SCT036 BKN050 OVC095 03/M03 A2998 RMK AO2 T00311031
 
KPBH - Phillips/Price, Wisconsin, USA
Distance from station: ESE 35mi, 56km
Updated: Mon, 04-Mar-2024 11:15am CST
Overcast
Overcast
 Wind from WNW
Wind: WNW 6 mph , 9 km/h
Temperature: 41°F , 5°C
Wind Chill: 37°F , 3°C
Dew Point: 27°F , -3°C
Humidity: 57%
Barometer: 29.93 inHg , 1013.5 hPa
Clouds: Overcast
Visibility: 10 miles , 16 km
Cloud details: Partly cloudy 6000 ft
Partly cloudy 8000 ft
Overcast 10000 ft
2024/03/04 17:15 KPBH 041715Z AUTO 30005KT 10SM SCT060 SCT080 OVC100 05/M03 A2993 RMK AO2 T00501032
KRPD - Rice Lake, Wisconsin, USA
Distance from station: SW 46mi, 75km
Updated: Mon, 04-Mar-2024 11:15am CST
Light snow, Overcast
Light snow, Overcast
 Wind from calm
Wind: Calm
Temperature: 36°F , 2°C
Dew Point: 25°F , -4°C
Humidity: 65%
Barometer: 30.00 inHg , 1015.9 hPa
Summary: Light Snow
Clouds: Overcast
Visibility: 7 miles , 11 km
Cloud details: Partly cloudy 2100 ft
Mostly cloudy 3100 ft
Overcast 5000 ft
2024/03/04 17:15 KRPD 041715Z AUTO 00000KT 7SM -SN SCT021 BKN031 OVC050 02/M04 A3000 RMK AO2 T00211038
 
KASX - Ashland, Wisconsin, USA
Distance from station: N 47mi, 75km
Updated: Mon, 04-Mar-2024 10:53am CST
Mostly cloudy
Mostly cloudy
 Wind from WSW
Wind: WSW 13 mph , 20 km/h
Temperature: 41°F , 5°C
Wind Chill: 34°F , 1°C
Dew Point: 21°F , -6°C
Humidity: 45%
Barometer: 29.95 inHg , 1014.2 hPa
Clouds: Mostly cloudy
Visibility: 10 miles , 16 km
Cloud details: Few Clouds 8500 ft
Mostly cloudy 11000 ft
2024/03/04 16:53 KASX 041653Z AUTO 24011KT 10SM FEW085 BKN110 05/M06 A2995 RMK AO2 SLP151 T00501056
KOLG - Solon Springs, Wisconsin, USA
Distance from station: NW 47mi, 75km
Updated: Mon, 04-Mar-2024 11:15am CST
Mostly cloudy
Mostly cloudy
 Wind from W
Wind: W 8 mph , 13 km/h
Temperature: 36°F , 2°C
Wind Chill: 30°F , -1°C
Dew Point: 19°F , -7°C
Humidity: 52%
Barometer: 29.97 inHg , 1014.9 hPa
Clouds: Mostly cloudy
Visibility: 10 miles , 16 km
Cloud details: Partly cloudy 7000 ft
Mostly cloudy 9000 ft
Mostly cloudy 11000 ft
2024/03/04 17:15 KOLG 041715Z AUTO 26007KT 10SM SCT070 BKN090 BKN110 02/M07 A2997 RMK AO1
 
KY23 - Chetek, Wisconsin, USA
Distance from station: SW 48mi, 78km
Updated: Mon, 04-Mar-2024 11:15am CST
Light rain, Overcast
Light rain, Overcast
 Wind from calm
Wind: Calm
Temperature: 36°F , 2°C
Dew Point: 32°F , 0°C
Humidity: 87%
Barometer: 29.98 inHg , 1015.2 hPa
Summary: Light rain
Clouds: Overcast
Visibility: 5 miles , 8 km
Cloud details: Mostly cloudy 2500 ft
Overcast 3400 ft
2024/03/04 17:15 KY23 041715Z AUTO 00000KT 5SM -RA BKN025 OVC034 02/00 A2998 RMK AO2 P0001 T00200004
KUBE - Cumberland, Wisconsin, USA
Distance from station: WSW 51mi, 82km
Updated: Mon, 04-Mar-2024 11:15am CST
Overcast
Overcast
 Wind from S
Wind: S 3 mph , 6 km/h
Temperature: 36°F , 2°C
Dew Point: 30°F , -1°C
Humidity: 81%
Barometer: 29.98 inHg , 1015.2 hPa
Clouds: Overcast
Visibility: 10 miles , 16 km
Cloud details: Mostly cloudy 4800 ft
Overcast 6000 ft
2024/03/04 17:15 KUBE 041715Z AUTO 18003KT 10SM BKN048 OVC060 02/M01 A2998 RMK AO2
 
KD25 - Manitowish Water, Wisconsin, USA
Distance from station: ENE 59mi, 96km
Updated: Mon, 04-Mar-2024 11:15am CST
Overcast
Overcast
 Wind from WSW
Wind: WSW 8 mph , 13 km/h
Temperature: 41°F , 5°C
Wind Chill: 36°F , 2°C
Dew Point: 27°F , -3°C
Humidity: 57%
Barometer: 29.94 inHg , 1013.9 hPa
Clouds: Overcast
Visibility: 10 miles , 16 km
Cloud details: Overcast 9000 ft
2024/03/04 17:15 KD25 041715Z AUTO 25007KT 230V290 10SM OVC090 05/M03 A2994 RMK AO2 T00501031
KRZN - Siren, Wisconsin, USA
Distance from station: W 62mi, 100km
Updated: Mon, 04-Mar-2024 11:15am CST
Clear
Clear
 Wind from NW
Wind: NW 10 mph , 17 km/h
Temperature: 37°F , 3°C
Wind Chill: 30°F , -1°C
Dew Point: 19°F , -7°C
Humidity: 48%
Barometer: 30.00 inHg , 1015.9 hPa
Clouds: Clear
Visibility: 10 miles , 16 km
2024/03/04 17:15 KRZN 041715Z AUTO 31009KT 10SM CLR 03/M07 A3000 RMK AO2 T00271068
 
KIWD - Ironwood, Michigan, USA
Distance from station: NE 63mi, 102km
Updated: Mon, 04-Mar-2024 10:56am CST
Overcast
Overcast
 Wind from SSW
Wind: SSW 9 mph , 15 km/h
Temperature: 39°F , 4°C
Wind Chill: 33°F , 1°C
Dew Point: 23°F , -5°C
Humidity: 52%
Barometer: 29.94 inHg , 1013.9 hPa
Clouds: Overcast
Visibility: 10 miles , 16 km
Cloud details: Overcast 4600 ft
2024/03/04 16:56 KIWD 041656Z AUTO 21008KT 10SM OVC046 04/M05 A2994 RMK AO2 SLP147 T00391050
K4R5 - La Pointe, Wisconsin, USA
Distance from station: NNE 64mi, 103km
Updated: Mon, 04-Mar-2024 11:15am CST
Overcast
Overcast
 Wind from WSW
Wind: WSW 8 mph , 13 km/h
Temperature: 39°F , 4°C
Wind Chill: 33°F , 1°C
Dew Point: 25°F , -4°C
Humidity: 56%
Barometer: 29.95 inHg , 1014.2 hPa
Clouds: Overcast
Visibility: 10 miles , 16 km
Cloud details: Overcast 10000 ft
2024/03/04 17:15 K4R5 041715Z AUTO 24007KT 10SM OVC100 04/M04 A2995 RMK AO2 T00401040
 
KARV - Minocqua/Woodruf, Wisconsin, USA
Distance from station: E 65mi, 105km
Updated: Mon, 04-Mar-2024 11:15am CST
Mostly cloudy
Mostly cloudy
 Wind from NW
Wind: NW 9 mph , 15 km/h
Temperature: 43°F , 6°C
Wind Chill: 38°F , 3°C
Dew Point: 25°F , -4°C
Humidity: 49%
Barometer: 29.91 inHg , 1012.9 hPa
Clouds: Mostly cloudy
Visibility: 10 miles , 16 km
Cloud details: Mostly cloudy 10000 ft
2024/03/04 17:15 KARV 041715Z AUTO 32008KT 10SM BKN100 06/M04 A2991 RMK AO2 T00601039
KMDZ - Medford, Wisconsin, USA
Distance from station: SE 66mi, 106km
Updated: Mon, 04-Mar-2024 11:15am CST
Overcast
Overcast
 Wind from W
Wind: W 5 mph , 7 km/h
Temperature: 39°F , 4°C
Wind Chill: 35°F , 2°C
Dew Point: 25°F , -4°C
Humidity: 56%
Barometer: 30.00 inHg , 1015.9 hPa
Clouds: Overcast
Visibility: 10 miles , 16 km
Cloud details: Partly cloudy 4800 ft
Mostly cloudy 5500 ft
Overcast 7000 ft
2024/03/04 17:15 KMDZ 041715Z AUTO 27004KT 10SM SCT048 BKN055 OVC070 04/M04 A3000 RMK AO2 T00411038 PWINO
 
KTKV - Tomahawk Regnl, Wisconsin, USA
Distance from station: ESE 67mi, 108km
Updated: Mon, 04-Mar-2024 11:15am CST
Overcast
Overcast
 Wind from WNW
Wind: WNW 9 mph , 15 km/h
Temperature: 41°F , 5°C
Wind Chill: 35°F , 2°C
Dew Point: 27°F , -3°C
Humidity: 57%
Barometer: 29.97 inHg , 1014.9 hPa
Clouds: Overcast
Visibility: 10 miles , 16 km
Cloud details: Partly cloudy 4900 ft
Mostly cloudy 7500 ft
Overcast 9000 ft
2024/03/04 17:15 KTKV 041715Z AUTO 29008KT 10SM SCT049 BKN075 OVC090 05/M03 A2997 RMK AO2 T00531029 PWINO
KEAU - Eau Claire, Wisconsin, USA
Distance from station: SSW 73mi, 117km
Updated: Mon, 04-Mar-2024 10:56am CST
Overcast
Overcast
 Wind from WNW
Wind: WNW 3 mph , 6 km/h
Temperature: 43°F , 6°C
Dew Point: 28°F , -2°C
Humidity: 57%
Barometer: 29.98 inHg , 1015.2 hPa
Clouds: Overcast
Visibility: 10 miles , 16 km
Cloud details: Few Clouds 7000 ft
Overcast 9000 ft
2024/03/04 16:56 KEAU 041656Z 29003KT 10SM FEW070 OVC090 06/M02 A2998 RMK AO2 SLP159 T00561022
 
KDYT - Duluth (sky Harb, Minnesota, USA
Distance from station: NW 74mi, 119km
Updated: Mon, 04-Mar-2024 11:15am CST
Clear
Clear
 Wind from SW
Wind: SW 15 mph , 24 km/h
Temperature: 36°F , 2°C
Wind Chill: 27°F , -3°C
Dew Point: 19°F , -7°C
Humidity: 52%
Barometer: 29.97 inHg , 1014.9 hPa
Clouds: Clear
Visibility: 10 miles , 16 km
2024/03/04 17:15 KDYT 041715Z AUTO 23013KT 10SM CLR 02/M07 A2997 RMK AO2
KSUW - Superior, Wisconsin, USA
Distance from station: NW 74mi, 119km
Updated: Mon, 04-Mar-2024 11:15am CST
Partly cloudy
Partly cloudy
 Wind from WSW
Wind: WSW 12 mph , 19 km/h
Temperature: 37°F , 3°C
Wind Chill: 29°F , -2°C
Dew Point: 19°F , -7°C
Humidity: 48%
Barometer: 29.98 inHg , 1015.2 hPa
Clouds: Partly cloudy
Visibility: 10 miles , 16 km
Cloud details: Partly cloudy 12000 ft
2024/03/04 17:15 KSUW 041715Z AUTO 25010KT 10SM SCT120 03/M07 A2998 RMK AO2 T00261074
 
KLUM - Menomonie Muni, Wisconsin, USA
Distance from station: SSW 78mi, 126km
Updated: Mon, 04-Mar-2024 11:15am CST
Overcast
Overcast
 Wind from WNW
Wind: WNW 9 mph , 15 km/h
Temperature: 41°F , 5°C
Wind Chill: 35°F , 2°C
Dew Point: 25°F , -4°C
Humidity: 53%
Barometer: 29.99 inHg , 1015.6 hPa
Clouds: Overcast
Visibility: 10 miles , 16 km
Cloud details: Partly cloudy 3100 ft
Partly cloudy 7000 ft
Overcast 8000 ft
2024/03/04 17:15 KLUM 041715Z AUTO 30008KT 10SM SCT031 SCT070 OVC080 05/M04 A2999 RMK AO2 T00501044 PWINO
KRHI - Rhinelander, Wisconsin, USA
Distance from station: ESE 79mi, 126km
Updated: Mon, 04-Mar-2024 10:53am CST
Overcast
Overcast
 Wind from S
Wind: S 3 mph , 6 km/h
Temperature: 39°F , 4°C
Dew Point: 25°F , -4°C
Humidity: 56%
Barometer: 29.95 inHg , 1014.2 hPa
Clouds: Overcast
Visibility: 10 miles , 16 km
Cloud details: Overcast 10000 ft
2024/03/04 16:53 KRHI 041653Z AUTO 18003KT 10SM OVC100 04/M04 A2995 RMK AO2 SLP152 T00441039